Blackstone, MA (01504)

5:29 AM EST on January 27, 2015 (GMT -0500)
The North End | Change Station
CLOSE
Current Station
Personal Weather Station
Location: Woonsocket, RI
Elevation: 242 ft
Nearby Weather Stations
Active Advisory: Blizzard Warning Active Notice: Public Information Statement

Elev 242 ft 42.01 °N, 71.52 °W | Updated 2 seconds ago

Snow
Snow
14.7 °F
Feels Like 4 °F
N
8.3
Wind Variable Wind from NNE
Gusts 8.3 mph

Today
High -- | Low -- °F
--% Chance of Precip.
Yesterday
High -- | Low -- °F
Precip. -- in
7:03 AM 4:54 PM
First Quarter, 53% visible
Pressure 29.51 in
Visibility 0.2 miles
Clouds Overcast 600 ft
Windchill 4 °F
Dew Point 2 °F
Humidity 55%
Rainfall 0.00 in
Snow Depth Not available.
UV 0 out of 12
Pollen .10 out of 12
Air Quality Not available.
Flu Activity Not available.
METAR KSFZ 271015Z 35021G31KT 1/4SM OVC006 M09/M14 A2951 RMK AO1 P0001

More Conditions Fewer Conditions

Pressure 29.51 in
Visibility 0.2 miles
Clouds Overcast 600 ft
Windchill 4 °F
Dew Point 2 °F
Humidity 55%
Rainfall 0.00 in
Snow Depth Not available.
UV 0 out of 12
Pollen .10 out of 12
Air Quality Not available.
Flu Activity Not available.
METAR KSFZ 271015Z 35021G31KT 1/4SM OVC006 M09/M14 A2951 RMK AO1 P0001

More Conditions Fewer Conditions

10-Day Weather Forecast

Almanac

Astronomy

Jan. 27, 2015 Rise Set
Actual Time
Civil Twilight
Nautical Twilight
Astronomical Twilight
Moon
Length of Visible Light
Length of Day
Tomorrow will be .
, % of the Moon is Illuminated

Today's Extremes

State Highs State Lows

Community

WunderPhotos

Upload Photos

1,790,562 photos uploaded!

WunderBlogs® & News

Nearby

Air Quality

  Air Quality AQ Index Pollutant
Not available.

Snow Depth

Station Depth Elevation

Earthquake Activity

City Distance Mag. Time & Date
Minimum magnitude displayed is 2.5.

Coastal Water Temperatures

Place Temperature

Nearby Weather Stations